createdAt,value
2018-07-30T00:01:35.159Z,3.83
2018-07-30T00:04:05.236Z,3.73
2018-07-30T00:06:34.684Z,3.53
2018-07-30T00:09:05.967Z,3.80
2018-07-30T00:11:35.425Z,4.00
2018-07-30T00:14:04.863Z,3.67
2018-07-30T00:16:34.303Z,3.33
2018-07-30T00:19:03.708Z,3.37
2018-07-30T00:21:33.180Z,3.80
2018-07-30T00:24:02.822Z,4.00
2018-07-30T00:26:32.999Z,3.50
2018-07-30T00:29:02.819Z,3.53
2018-07-30T00:31:32.561Z,3.97
2018-07-30T00:34:01.945Z,3.77
2018-07-30T00:36:31.422Z,4.30
2018-07-30T00:39:01.038Z,4.17
2018-07-30T00:41:30.594Z,4.40
2018-07-30T00:44:00.019Z,4.30
2018-07-30T00:46:29.550Z,3.77
2018-07-30T00:48:58.938Z,4.40
2018-07-30T00:51:29.735Z,4.10
2018-07-30T00:54:02.351Z,4.33
2018-07-30T00:56:31.765Z,4.27
2018-07-30T00:59:04.396Z,3.90
2018-07-30T01:01:33.993Z,4.10
2018-07-30T01:04:06.735Z,4.63
2018-07-30T01:06:36.634Z,4.20
2018-07-30T01:09:08.729Z,4.50
2018-07-30T01:11:40.561Z,4.10
2018-07-30T01:14:14.217Z,4.53
2018-07-30T01:16:48.249Z,4.03
2018-07-30T01:19:17.714Z,4.57
2018-07-30T01:21:52.317Z,4.23
2018-07-30T01:24:22.034Z,4.50
2018-07-30T01:26:53.490Z,4.20
2018-07-30T01:29:24.722Z,4.47
2018-07-30T01:31:54.917Z,4.67
2018-07-30T01:34:24.697Z,4.00
2018-07-30T01:36:55.271Z,3.97
2018-07-30T01:39:27.161Z,4.20
2018-07-30T01:41:59.702Z,4.37
2018-07-30T01:44:31.284Z,4.33
2018-07-30T01:47:01.350Z,3.90
2018-07-30T01:49:32.232Z,4.20
2018-07-30T01:52:02.117Z,4.50
2018-07-30T01:54:33.613Z,3.83
2018-07-30T01:57:06.357Z,3.77
2018-07-30T01:59:36.967Z,3.80
2018-07-30T02:02:07.578Z,4.80
2018-07-30T02:04:38.656Z,4.30
2018-07-30T02:07:09.622Z,4.00
2018-07-30T02:09:43.301Z,4.30
2018-07-30T02:12:15.378Z,4.10
2018-07-30T02:14:47.643Z,4.20
2018-07-30T02:17:19.881Z,3.70
2018-07-30T02:19:51.921Z,3.97
2018-07-30T02:22:22.930Z,3.97
2018-07-30T02:24:53.280Z,4.27
2018-07-30T02:27:23.629Z,4.60
2018-07-30T02:29:54.024Z,4.23
2018-07-30T02:32:28.343Z,4.50
2018-07-30T02:35:00.927Z,3.60
2018-07-30T02:37:33.933Z,4.20
2018-07-30T02:40:06.905Z,4.10
2018-07-30T02:42:39.978Z,3.70
2018-07-30T02:45:12.506Z,4.70
2018-07-30T02:47:41.999Z,4.37
2018-07-30T02:50:13.477Z,4.07
2018-07-30T02:52:46.982Z,4.30
2018-07-30T02:55:17.106Z,4.20
2018-07-30T02:57:46.754Z,3.80
2018-07-30T03:00:33.614Z,4.23
2018-07-30T03:03:04.960Z,4.00
2018-07-30T03:05:36.187Z,3.83
2018-07-30T03:08:06.149Z,4.17
2018-07-30T03:10:36.382Z,4.00
2018-07-30T03:13:06.377Z,4.30
2018-07-30T03:15:39.791Z,4.20
2018-07-30T03:18:09.637Z,4.07
2018-07-30T03:20:40.319Z,3.93
2018-07-30T03:23:10.782Z,3.93
2018-07-30T03:25:40.656Z,4.00
2018-07-30T03:28:10.032Z,3.93
2018-07-30T03:30:40.232Z,3.53
2018-07-30T03:33:11.235Z,3.87
2018-07-30T03:35:45.828Z,4.40
2018-07-30T03:38:15.747Z,4.50
2018-07-30T03:43:30.590Z,4.50
2018-07-30T03:46:03.140Z,4.70
2018-07-30T03:48:37.082Z,4.50
2018-07-30T03:51:08.397Z,3.90
2018-07-30T03:53:41.310Z,3.90
2018-07-30T03:56:15.864Z,4.10
2018-07-30T03:58:49.438Z,4.27
2018-07-30T04:01:22.906Z,4.13
2018-07-30T04:03:53.588Z,3.93
2018-07-30T04:06:26.998Z,3.90
2018-07-30T04:09:02.162Z,4.10
2018-07-30T04:11:31.612Z,3.73
2018-07-30T04:14:01.069Z,4.00
2018-07-30T04:16:30.466Z,3.80
2018-07-30T04:18:59.878Z,3.83
2018-07-30T04:21:29.887Z,4.00
2018-07-30T04:23:59.313Z,3.90
2018-07-30T04:26:28.654Z,4.40
2018-07-30T04:28:58.068Z,4.00
2018-07-30T04:31:27.593Z,4.23
2018-07-30T04:33:58.050Z,3.77
2018-07-30T04:36:27.446Z,3.87
2018-07-30T04:38:56.778Z,3.50
2018-07-30T04:41:26.193Z,4.20
2018-07-30T04:43:55.504Z,4.17
2018-07-30T04:46:25.073Z,4.20
2018-07-30T04:48:54.612Z,4.30
2018-07-30T04:51:23.988Z,3.60
2018-07-30T04:53:53.422Z,3.60
2018-07-30T04:56:22.847Z,4.20
2018-07-30T04:58:52.557Z,5.10
2018-07-30T05:01:23.090Z,4.40
2018-07-30T05:03:52.607Z,4.80
2018-07-30T05:06:22.135Z,3.97
2018-07-30T05:08:52.371Z,4.10
2018-07-30T05:11:21.789Z,5.60
2018-07-30T05:13:51.222Z,4.43
2018-07-30T05:16:20.657Z,4.07
2018-07-30T05:18:50.019Z,3.93
2018-07-30T05:21:19.533Z,3.73
2018-07-30T05:23:48.927Z,4.00
2018-07-30T05:26:18.327Z,3.93
2018-07-30T05:28:47.673Z,4.20
2018-07-30T05:31:17.192Z,3.80
2018-07-30T05:33:46.697Z,3.87
2018-07-30T05:36:16.138Z,3.80
2018-07-30T05:38:45.583Z,4.20
2018-07-30T05:41:15.096Z,3.20
2018-07-30T05:43:44.681Z,3.77
2018-07-30T05:46:14.140Z,3.10
2018-07-30T05:48:43.518Z,2.53
2018-07-30T05:51:13.010Z,3.10
2018-07-30T05:53:42.388Z,2.80
2018-07-30T05:56:11.825Z,3.07
2018-07-30T05:58:41.654Z,2.77
2018-07-30T06:01:11.292Z,3.10
2018-07-30T06:03:40.724Z,3.63
2018-07-30T06:06:10.181Z,3.23
2018-07-30T06:08:39.560Z,3.40
2018-07-30T06:11:08.929Z,2.20
2018-07-30T06:13:38.492Z,3.70
2018-07-30T06:16:08.103Z,2.70
2018-07-30T06:18:37.512Z,2.87
2018-07-30T06:21:06.894Z,2.50
2018-07-30T06:23:36.329Z,2.70
2018-07-30T06:26:05.890Z,2.70
2018-07-30T06:28:35.466Z,2.70
2018-07-30T06:31:04.968Z,3.07
2018-07-30T06:33:34.507Z,2.90
2018-07-30T06:36:03.916Z,3.10
2018-07-30T06:38:33.379Z,3.57
2018-07-30T06:41:02.764Z,2.90
2018-07-30T06:43:32.390Z,3.33
2018-07-30T06:46:01.857Z,3.60
2018-07-30T06:48:31.367Z,3.17
2018-07-30T06:51:00.785Z,3.23
2018-07-30T06:53:30.409Z,3.03
2018-07-30T06:55:59.807Z,2.93
2018-07-30T06:58:29.245Z,2.63
2018-07-30T07:01:00.063Z,3.00
2018-07-30T07:03:29.654Z,3.63
2018-07-30T07:05:59.003Z,3.23
2018-07-30T07:08:28.389Z,3.50
2018-07-30T07:10:57.845Z,2.70
2018-07-30T07:13:27.220Z,3.00
2018-07-30T07:15:56.678Z,2.83
2018-07-30T07:18:26.000Z,3.07
2018-07-30T07:20:55.475Z,2.97
2018-07-30T07:23:24.858Z,2.90
2018-07-30T07:25:54.287Z,2.93
2018-07-30T07:28:23.921Z,3.00
2018-07-30T07:30:53.285Z,3.20
2018-07-30T07:33:22.681Z,3.47
2018-07-30T07:35:52.195Z,2.80
2018-07-30T07:38:21.851Z,2.90
2018-07-30T07:40:51.381Z,3.23
2018-07-30T07:43:20.880Z,2.90
2018-07-30T07:45:50.519Z,2.80
2018-07-30T07:48:20.083Z,2.83
2018-07-30T07:50:49.673Z,3.23
2018-07-30T07:53:19.464Z,2.87
2018-07-30T07:55:48.922Z,2.97
2018-07-30T07:58:18.506Z,2.67
2018-07-30T08:00:47.930Z,2.90
2018-07-30T08:03:17.435Z,2.87
2018-07-30T08:05:47.020Z,2.80
2018-07-30T08:08:16.543Z,2.90
2018-07-30T08:10:45.929Z,2.93
2018-07-30T08:13:15.448Z,3.00
2018-07-30T08:15:44.855Z,2.83
2018-07-30T08:18:14.586Z,3.00
2018-07-30T08:20:43.997Z,2.40
2018-07-30T08:23:14.000Z,3.23
2018-07-30T08:25:44.122Z,3.20
2018-07-30T08:28:13.683Z,2.80
2018-07-30T08:30:43.178Z,2.27
2018-07-30T08:33:12.832Z,3.00
2018-07-30T08:35:42.332Z,2.70
2018-07-30T08:38:11.744Z,2.80
2018-07-30T08:40:41.304Z,2.90
2018-07-30T08:43:11.772Z,2.97
2018-07-30T08:45:41.187Z,3.00
2018-07-30T08:48:10.773Z,2.80
2018-07-30T08:50:40.184Z,3.13
2018-07-30T08:53:09.733Z,2.90
2018-07-30T08:55:39.146Z,3.10
2018-07-30T08:58:08.630Z,2.80
2018-07-30T09:00:38.087Z,2.70
2018-07-30T09:03:07.688Z,2.97
2018-07-30T09:05:37.171Z,3.27
2018-07-30T09:08:06.823Z,2.70
2018-07-30T09:10:36.196Z,2.87
2018-07-30T09:13:05.932Z,3.27
2018-07-30T09:15:35.444Z,3.20
2018-07-30T09:18:05.118Z,3.27
2018-07-30T09:20:34.655Z,3.20
2018-07-30T09:23:04.092Z,5.23
2018-07-30T09:25:35.243Z,3.23
2018-07-30T09:28:05.171Z,3.77
2018-07-30T09:30:34.659Z,3.40
2018-07-30T09:33:04.877Z,3.43
2018-07-30T09:35:34.637Z,3.13
2018-07-30T09:38:04.149Z,3.27
2018-07-30T09:40:33.818Z,3.23
2018-07-30T09:43:03.673Z,3.20
2018-07-30T09:45:33.462Z,3.27
2018-07-30T09:48:03.178Z,3.50
2018-07-30T09:50:32.561Z,3.00
2018-07-30T09:53:02.094Z,3.27
2018-07-30T09:55:32.590Z,3.00
2018-07-30T09:58:01.996Z,2.93
2018-07-30T10:00:36.840Z,4.40
2018-07-30T10:03:06.632Z,3.50
2018-07-30T10:05:37.214Z,2.83
2018-07-30T10:08:06.578Z,3.47
2018-07-30T10:10:36.157Z,3.47
2018-07-30T10:13:05.580Z,3.30
2018-07-30T10:15:35.029Z,3.20
2018-07-30T10:18:05.864Z,3.40
2018-07-30T10:20:35.258Z,3.17
2018-07-30T10:23:04.617Z,4.40
2018-07-30T10:25:34.003Z,4.03
2018-07-30T10:28:03.500Z,3.30
2018-07-30T10:30:32.889Z,3.30
2018-07-30T10:33:02.617Z,3.57
2018-07-30T10:35:32.062Z,3.10
2018-07-30T10:38:01.520Z,3.70
2018-07-30T10:40:30.866Z,3.67
2018-07-30T10:43:00.205Z,3.70
2018-07-30T10:45:29.682Z,3.20
2018-07-30T10:47:59.090Z,3.43
2018-07-30T10:50:28.485Z,3.40
2018-07-30T10:52:57.963Z,3.60
2018-07-30T10:55:27.478Z,3.80
2018-07-30T10:57:56.966Z,3.57
2018-07-30T11:00:26.415Z,3.40
2018-07-30T11:02:55.887Z,3.17
2018-07-30T11:05:25.449Z,3.83
2018-07-30T11:07:54.860Z,3.33
2018-07-30T11:10:24.269Z,3.40
2018-07-30T11:12:53.799Z,3.80
2018-07-30T11:15:23.409Z,3.10
2018-07-30T11:17:53.076Z,3.50
2018-07-30T11:20:22.538Z,3.57
2018-07-30T11:22:52.337Z,3.03
2018-07-30T11:25:21.885Z,3.53
2018-07-30T11:27:51.391Z,3.13
2018-07-30T11:30:20.770Z,3.67
2018-07-30T11:32:50.298Z,3.50
2018-07-30T11:35:19.765Z,3.23
2018-07-30T11:37:49.334Z,3.40
2018-07-30T11:40:18.757Z,3.60
2018-07-30T11:42:48.245Z,3.40
2018-07-30T11:45:17.699Z,3.00
2018-07-30T11:47:47.220Z,3.30
2018-07-30T11:50:16.852Z,3.90
2018-07-30T11:52:46.288Z,3.17
2018-07-30T11:55:15.686Z,3.30
2018-07-30T11:57:45.176Z,3.43
2018-07-30T12:00:14.618Z,3.50
2018-07-30T12:02:44.179Z,3.73
2018-07-30T12:05:13.617Z,3.47
2018-07-30T12:07:43.044Z,3.30
2018-07-30T12:10:12.907Z,3.67
2018-07-30T12:12:42.498Z,3.73
2018-07-30T12:15:12.043Z,3.60
2018-07-30T12:17:41.372Z,2.90
2018-07-30T12:20:10.733Z,3.20
2018-07-30T12:22:40.042Z,3.73
2018-07-30T12:25:09.420Z,3.80
2018-07-30T12:27:38.814Z,3.80
2018-07-30T12:30:08.536Z,3.30
2018-07-30T12:32:37.976Z,3.83
2018-07-30T12:35:08.381Z,3.47
2018-07-30T12:37:37.700Z,3.47
2018-07-30T12:40:07.221Z,3.90
2018-07-30T12:42:37.972Z,3.83
2018-07-30T12:45:07.330Z,3.77
2018-07-30T12:47:36.677Z,3.60
2018-07-30T12:50:06.162Z,3.43
2018-07-30T12:52:35.637Z,3.43
2018-07-30T12:55:05.268Z,3.23
2018-07-30T12:57:34.701Z,3.63
2018-07-30T13:00:04.116Z,3.57
2018-07-30T13:02:33.493Z,3.67
2018-07-30T13:05:02.905Z,3.80
2018-07-30T13:07:32.314Z,3.80
2018-07-30T13:10:01.729Z,3.90
2018-07-30T13:12:31.161Z,3.17
2018-07-30T13:15:00.659Z,3.57
2018-07-30T13:17:30.069Z,3.30
2018-07-30T13:19:59.590Z,3.20
2018-07-30T13:22:29.245Z,3.37
2018-07-30T13:24:58.750Z,3.47
2018-07-30T13:27:28.633Z,3.27
2018-07-30T13:29:58.150Z,3.17
2018-07-30T13:32:27.793Z,3.50
2018-07-30T13:34:57.321Z,3.70
2018-07-30T13:37:26.765Z,3.23
2018-07-30T13:39:56.190Z,4.00
2018-07-30T13:42:25.701Z,3.73
2018-07-30T13:44:55.169Z,3.97
2018-07-30T13:47:24.697Z,3.60
2018-07-30T13:49:54.122Z,3.50
2018-07-30T13:52:23.577Z,3.53
2018-07-30T13:54:53.085Z,4.10
2018-07-30T13:57:22.544Z,3.57
2018-07-30T13:59:51.910Z,4.27
2018-07-30T14:02:21.310Z,3.57
2018-07-30T14:04:50.763Z,3.17
2018-07-30T14:07:20.320Z,3.33
2018-07-30T14:09:51.909Z,3.77
2018-07-30T14:12:21.350Z,3.70
2018-07-30T14:14:50.809Z,3.50
2018-07-30T14:17:21.321Z,3.80
2018-07-30T14:19:50.796Z,3.20
2018-07-30T14:22:20.301Z,3.50
2018-07-30T14:24:49.826Z,3.57
2018-07-30T14:27:19.250Z,3.60
2018-07-30T14:29:48.646Z,3.00
2018-07-30T14:32:18.075Z,3.43
2018-07-30T14:34:47.524Z,3.60
2018-07-30T14:39:48.737Z,3.70
2018-07-30T14:42:18.426Z,3.60
2018-07-30T14:44:47.933Z,3.50
2018-07-30T14:47:17.345Z,3.20
2018-07-30T14:49:47.813Z,2.80
2018-07-30T14:52:17.189Z,3.47
2018-07-30T14:54:47.628Z,3.00
2018-07-30T14:57:16.995Z,3.67
2018-07-30T14:59:46.385Z,3.67
2018-07-30T15:02:15.906Z,3.87
2018-07-30T15:04:45.259Z,3.17
2018-07-30T15:07:14.712Z,3.70
2018-07-30T15:09:44.080Z,3.60
2018-07-30T15:12:13.420Z,3.70
2018-07-30T15:14:42.972Z,3.50
2018-07-30T15:17:12.388Z,3.90
2018-07-30T15:19:41.744Z,3.70
2018-07-30T15:22:11.149Z,3.20
2018-07-30T15:24:40.521Z,3.70
2018-07-30T15:27:09.954Z,3.70
2018-07-30T15:29:39.460Z,3.53
2018-07-30T15:32:08.859Z,3.87
2018-07-30T15:34:38.218Z,3.30
2018-07-30T15:37:07.739Z,3.80
2018-07-30T15:39:37.288Z,3.33
2018-07-30T15:42:06.884Z,3.40
2018-07-30T15:44:36.224Z,3.20
2018-07-30T15:47:05.633Z,3.57
2018-07-30T15:49:35.066Z,3.03
2018-07-30T15:52:04.612Z,3.53
2018-07-30T15:54:34.213Z,4.03
2018-07-30T15:57:03.585Z,3.70
2018-07-30T15:59:34.040Z,3.23
2018-07-30T16:02:03.444Z,3.67
2018-07-30T16:04:32.944Z,3.40
2018-07-30T16:07:02.356Z,3.73
2018-07-30T16:09:31.883Z,4.00
2018-07-30T16:12:02.364Z,4.10
2018-07-30T16:14:31.792Z,3.27
2018-07-30T16:17:01.206Z,3.43
2018-07-30T16:19:30.621Z,3.70
2018-07-30T16:22:00.149Z,4.00
2018-07-30T16:24:29.597Z,3.43
2018-07-30T16:26:59.054Z,3.37
2018-07-30T16:29:28.416Z,4.00
2018-07-30T16:31:58.900Z,3.70
2018-07-30T16:34:28.454Z,3.60
2018-07-30T16:36:57.888Z,3.57
2018-07-30T16:39:27.289Z,3.73
2018-07-30T16:41:56.717Z,3.73
2018-07-30T16:44:26.045Z,4.07
2018-07-30T16:46:55.552Z,4.33
2018-07-30T16:49:24.974Z,3.70
2018-07-30T16:51:54.360Z,4.27
2018-07-30T16:54:23.763Z,4.00
2018-07-30T16:56:53.129Z,4.37
2018-07-30T16:59:22.606Z,3.63
2018-07-30T17:01:52.016Z,3.93
2018-07-30T17:04:21.404Z,3.40
2018-07-30T17:06:50.817Z,3.37
2018-07-30T17:09:20.193Z,3.63
2018-07-30T17:11:49.758Z,3.60
2018-07-30T17:14:19.271Z,3.80
2018-07-30T17:16:48.773Z,3.73
2018-07-30T17:19:18.220Z,4.00
2018-07-30T17:21:47.668Z,3.60
2018-07-30T17:24:17.155Z,3.80
2018-07-30T17:26:46.517Z,4.10
2018-07-30T17:29:15.917Z,4.57
2018-07-30T17:31:45.327Z,4.00
2018-07-30T17:34:14.695Z,3.83
2018-07-30T17:36:44.097Z,3.77
2018-07-30T17:39:13.664Z,3.53
2018-07-30T17:41:43.044Z,4.03
2018-07-30T17:44:12.446Z,3.60
2018-07-30T17:46:41.872Z,4.10
2018-07-30T17:49:11.279Z,4.00
2018-07-30T17:51:40.811Z,3.80
2018-07-30T17:54:10.133Z,4.40
2018-07-30T17:56:39.527Z,4.10
2018-07-30T17:59:08.853Z,4.37
2018-07-30T18:01:38.223Z,4.17
2018-07-30T18:04:07.529Z,4.53
2018-07-30T18:06:43.232Z,4.17
2018-07-30T18:09:12.588Z,4.60
2018-07-30T18:11:42.180Z,4.47
2018-07-30T18:14:11.504Z,4.40
2018-07-30T18:16:40.967Z,4.50
2018-07-30T18:19:10.510Z,4.30
2018-07-30T18:21:39.965Z,4.60
2018-07-30T18:24:09.398Z,4.77
2018-07-30T18:26:38.741Z,4.50
2018-07-30T18:29:08.093Z,4.33
2018-07-30T18:31:37.565Z,4.70
2018-07-30T18:34:06.889Z,4.50
2018-07-30T18:36:36.281Z,4.93
2018-07-30T18:39:07.019Z,4.77
2018-07-30T18:41:36.429Z,4.47
2018-07-30T18:44:05.870Z,4.50
2018-07-30T18:46:35.330Z,5.10
2018-07-30T18:49:04.632Z,4.70
2018-07-30T18:51:34.102Z,4.50
2018-07-30T18:54:03.668Z,4.30
2018-07-30T18:56:33.232Z,4.90
2018-07-30T18:59:02.578Z,4.93
2018-07-30T19:01:31.907Z,4.93
2018-07-30T19:04:01.277Z,4.70
2018-07-30T19:06:30.686Z,4.60
2018-07-30T19:09:00.046Z,5.10
2018-07-30T19:11:29.551Z,5.13
2018-07-30T19:13:58.957Z,5.10
2018-07-30T19:16:28.349Z,4.90
2018-07-30T19:18:57.753Z,4.87
2018-07-30T19:21:27.078Z,4.90
2018-07-30T19:23:56.484Z,5.37
2018-07-30T19:26:25.856Z,5.20
2018-07-30T19:28:55.267Z,5.40
2018-07-30T19:31:24.617Z,4.80
2018-07-30T19:33:54.008Z,5.10
2018-07-30T19:36:23.420Z,4.63
2018-07-30T19:38:52.948Z,4.93
2018-07-30T19:41:22.248Z,5.57
2018-07-30T19:43:51.600Z,5.03
2018-07-30T19:46:20.956Z,6.20
2018-07-30T19:48:50.289Z,5.80
2018-07-30T19:51:19.707Z,4.87
2018-07-30T19:53:49.154Z,5.47
2018-07-30T19:56:18.600Z,5.33
2018-07-30T19:58:48.071Z,4.93
2018-07-30T20:01:17.287Z,5.43
2018-07-30T20:03:46.685Z,5.70
2018-07-30T20:06:16.026Z,5.27
2018-07-30T20:08:45.526Z,5.53
2018-07-30T20:11:14.900Z,5.70
2018-07-30T20:13:44.166Z,5.40
2018-07-30T20:16:13.566Z,6.17
2018-07-30T20:18:43.518Z,6.13
2018-07-30T20:21:13.114Z,5.70
2018-07-30T20:23:42.672Z,5.93
2018-07-30T20:26:12.122Z,5.80
2018-07-30T20:28:41.580Z,6.20
2018-07-30T20:31:10.967Z,5.57
2018-07-30T20:33:40.421Z,5.50
2018-07-30T20:36:09.761Z,5.70
2018-07-30T20:38:39.078Z,5.80
2018-07-30T20:41:08.789Z,5.47
2018-07-30T20:43:38.131Z,5.10
2018-07-30T20:46:07.722Z,5.70
2018-07-30T20:48:37.134Z,5.87
2018-07-30T20:51:06.413Z,5.80
2018-07-30T20:53:35.790Z,6.23
2018-07-30T20:56:05.065Z,6.40
2018-07-30T20:58:34.440Z,5.43
2018-07-30T21:01:03.845Z,5.53
2018-07-30T21:03:33.148Z,5.17
2018-07-30T21:06:02.443Z,5.70
2018-07-30T21:08:31.809Z,5.33
2018-07-30T21:11:01.194Z,5.50
2018-07-30T21:13:30.483Z,5.97
2018-07-30T21:15:59.779Z,5.57
2018-07-30T21:18:29.101Z,5.40
2018-07-30T21:20:58.441Z,5.83
2018-07-30T21:23:27.814Z,5.90
2018-07-30T21:25:57.168Z,5.70
2018-07-30T21:28:26.531Z,6.33
2018-07-30T21:30:55.885Z,6.10
2018-07-30T21:33:25.222Z,5.43
2018-07-30T21:35:54.516Z,5.50
2018-07-30T21:38:23.841Z,5.90
2018-07-30T21:40:53.276Z,5.70
2018-07-30T21:43:22.531Z,5.53
2018-07-30T21:45:51.820Z,5.73
2018-07-30T21:48:21.143Z,5.70
2018-07-30T21:50:50.478Z,5.60
2018-07-30T21:53:19.827Z,5.93
2018-07-30T21:55:49.147Z,5.30
2018-07-30T21:58:18.479Z,5.70
2018-07-30T22:00:53.091Z,6.20
2018-07-30T22:03:22.515Z,6.10
2018-07-30T22:05:58.917Z,5.80
2018-07-30T22:08:28.664Z,6.00
2018-07-30T22:10:58.138Z,5.70
2018-07-30T22:13:27.560Z,5.30
2018-07-30T22:15:56.877Z,6.27
2018-07-30T22:18:26.324Z,5.60
2018-07-30T22:20:56.109Z,5.97
2018-07-30T22:23:25.508Z,5.93
2018-07-30T22:25:54.913Z,6.23
2018-07-30T22:28:24.222Z,5.67
2018-07-30T22:30:53.623Z,5.80
2018-07-30T22:33:23.091Z,5.77
2018-07-30T22:35:52.561Z,5.90
2018-07-30T22:38:21.910Z,5.97
2018-07-30T22:40:51.211Z,5.90
2018-07-30T22:43:20.558Z,5.70
2018-07-30T22:45:49.900Z,6.33
2018-07-30T22:48:19.264Z,5.50
2018-07-30T22:50:48.526Z,5.90
2018-07-30T22:53:17.836Z,5.83
2018-07-30T22:55:47.224Z,6.00
2018-07-30T22:58:16.556Z,5.97
2018-07-30T23:00:45.957Z,5.40
2018-07-30T23:03:15.275Z,6.07
2018-07-30T23:05:44.613Z,6.47
2018-07-30T23:08:13.997Z,5.37
2018-07-30T23:10:43.309Z,6.07
2018-07-30T23:13:12.596Z,6.57
2018-07-30T23:15:41.888Z,6.43
2018-07-30T23:18:11.225Z,6.23
2018-07-30T23:20:40.527Z,6.47
2018-07-30T23:23:09.845Z,5.87
2018-07-30T23:25:39.107Z,6.23
2018-07-30T23:28:08.378Z,6.30
2018-07-30T23:30:37.667Z,6.27
2018-07-30T23:33:07.020Z,6.00
2018-07-30T23:35:36.377Z,5.60
2018-07-30T23:38:05.721Z,6.03
2018-07-30T23:40:34.993Z,5.63
2018-07-30T23:43:04.309Z,6.80
2018-07-30T23:45:33.576Z,6.87
2018-07-30T23:48:02.924Z,6.10
2018-07-30T23:50:32.231Z,7.00
2018-07-30T23:53:01.552Z,6.23
2018-07-30T23:55:30.809Z,5.80
2018-07-30T23:58:00.093Z,6.50
